sensor_id;sensor_type;location;lat;lon;timestamp;temperature;humidity
10538;DHT22;5317;49.048;8.468;2023-04-03T00:02:06;11.20;52.80
10538;DHT22;5317;49.048;8.468;2023-04-03T00:04:33;11.20;52.60
10538;DHT22;5317;49.048;8.468;2023-04-03T00:07:01;11.30;52.30
10538;DHT22;5317;49.048;8.468;2023-04-03T00:09:28;11.30;52.10
10538;DHT22;5317;49.048;8.468;2023-04-03T00:11:55;11.30;52.20
10538;DHT22;5317;49.048;8.468;2023-04-03T00:14:22;11.30;52.20
10538;DHT22;5317;49.048;8.468;2023-04-03T00:16:48;11.30;52.20
10538;DHT22;5317;49.048;8.468;2023-04-03T00:19:15;11.30;52.30
10538;DHT22;5317;49.048;8.468;2023-04-03T00:21:42;11.30;52.50
10538;DHT22;5317;49.048;8.468;2023-04-03T00:24:10;11.30;52.20
10538;DHT22;5317;49.048;8.468;2023-04-03T00:26:37;11.30;52.30
10538;DHT22;5317;49.048;8.468;2023-04-03T00:29:04;11.30;52.50
10538;DHT22;5317;49.048;8.468;2023-04-03T00:31:31;11.30;52.60
10538;DHT22;5317;49.048;8.468;2023-04-03T00:33:58;11.30;52.60
10538;DHT22;5317;49.048;8.468;2023-04-03T00:36:25;11.20;52.80
10538;DHT22;5317;49.048;8.468;2023-04-03T00:38:52;11.20;52.90
10538;DHT22;5317;49.048;8.468;2023-04-03T00:41:20;11.20;52.60
10538;DHT22;5317;49.048;8.468;2023-04-03T00:43:47;11.20;52.40
10538;DHT22;5317;49.048;8.468;2023-04-03T00:46:14;11.20;52.60
10538;DHT22;5317;49.048;8.468;2023-04-03T00:48:42;11.20;52.80
10538;DHT22;5317;49.048;8.468;2023-04-03T00:51:13;11.20;52.40
10538;DHT22;5317;49.048;8.468;2023-04-03T00:53:44;11.20;52.40
10538;DHT22;5317;49.048;8.468;2023-04-03T00:56:13;11.10;51.90
10538;DHT22;5317;49.048;8.468;2023-04-03T00:58:47;11.10;52.40
10538;DHT22;5317;49.048;8.468;2023-04-03T01:01:19;11.10;52.30
10538;DHT22;5317;49.048;8.468;2023-04-03T01:03:47;11.10;52.30
10538;DHT22;5317;49.048;8.468;2023-04-03T01:06:17;11.10;52.20
10538;DHT22;5317;49.048;8.468;2023-04-03T01:08:44;11.10;52.10
10538;DHT22;5317;49.048;8.468;2023-04-03T01:11:12;11.10;52.30
10538;DHT22;5317;49.048;8.468;2023-04-03T01:13:39;11.10;52.50
10538;DHT22;5317;49.048;8.468;2023-04-03T01:16:08;11.10;52.80
10538;DHT22;5317;49.048;8.468;2023-04-03T01:18:38;11.10;53.00
10538;DHT22;5317;49.048;8.468;2023-04-03T01:21:29;11.10;53.40
10538;DHT22;5317;49.048;8.468;2023-04-03T01:24:12;11.00;53.40
10538;DHT22;5317;49.048;8.468;2023-04-03T01:26:42;11.00;53.10
10538;DHT22;5317;49.048;8.468;2023-04-03T01:29:09;11.00;53.00
10538;DHT22;5317;49.048;8.468;2023-04-03T01:31:52;11.00;53.00
10538;DHT22;5317;49.048;8.468;2023-04-03T01:34:20;11.00;53.20
10538;DHT22;5317;49.048;8.468;2023-04-03T01:36:47;10.90;53.70
10538;DHT22;5317;49.048;8.468;2023-04-03T01:39:14;10.90;54.20
10538;DHT22;5317;49.048;8.468;2023-04-03T01:41:41;10.90;54.30
10538;DHT22;5317;49.048;8.468;2023-04-03T01:44:11;10.90;54.30
10538;DHT22;5317;49.048;8.468;2023-04-03T01:46:38;10.90;54.20
10538;DHT22;5317;49.048;8.468;2023-04-03T01:49:06;10.90;54.20
10538;DHT22;5317;49.048;8.468;2023-04-03T01:51:33;10.80;54.40
10538;DHT22;5317;49.048;8.468;2023-04-03T01:54:00;10.70;54.10
10538;DHT22;5317;49.048;8.468;2023-04-03T01:56:27;10.70;54.20
10538;DHT22;5317;49.048;8.468;2023-04-03T01:58:54;10.70;54.40
10538;DHT22;5317;49.048;8.468;2023-04-03T02:01:21;10.70;54.50
10538;DHT22;5317;49.048;8.468;2023-04-03T02:03:47;10.60;54.70
10538;DHT22;5317;49.048;8.468;2023-04-03T02:06:16;10.60;54.80
10538;DHT22;5317;49.048;8.468;2023-04-03T02:08:43;10.60;55.00
10538;DHT22;5317;49.048;8.468;2023-04-03T02:11:09;10.60;55.00
10538;DHT22;5317;49.048;8.468;2023-04-03T02:13:36;10.60;55.30
10538;DHT22;5317;49.048;8.468;2023-04-03T02:16:07;10.50;55.20
10538;DHT22;5317;49.048;8.468;2023-04-03T02:18:35;10.50;55.30
10538;DHT22;5317;49.048;8.468;2023-04-03T02:21:02;10.50;55.30
10538;DHT22;5317;49.048;8.468;2023-04-03T02:23:30;10.40;55.30
10538;DHT22;5317;49.048;8.468;2023-04-03T02:26:06;10.40;55.50
10538;DHT22;5317;49.048;8.468;2023-04-03T02:28:33;10.40;55.50
10538;DHT22;5317;49.048;8.468;2023-04-03T02:31:00;10.30;55.60
10538;DHT22;5317;49.048;8.468;2023-04-03T02:33:27;10.30;55.70
10538;DHT22;5317;49.048;8.468;2023-04-03T02:35:57;10.30;55.80
10538;DHT22;5317;49.048;8.468;2023-04-03T02:38:25;10.30;55.80
10538;DHT22;5317;49.048;8.468;2023-04-03T02:40:53;10.20;55.80
10538;DHT22;5317;49.048;8.468;2023-04-03T02:43:21;10.20;55.70
10538;DHT22;5317;49.048;8.468;2023-04-03T02:45:48;10.20;56.40
10538;DHT22;5317;49.048;8.468;2023-04-03T02:48:14;10.10;55.80
10538;DHT22;5317;49.048;8.468;2023-04-03T02:50:42;10.10;55.80
10538;DHT22;5317;49.048;8.468;2023-04-03T02:53:09;10.10;55.60
10538;DHT22;5317;49.048;8.468;2023-04-03T02:55:36;10.10;55.80
10538;DHT22;5317;49.048;8.468;2023-04-03T02:58:04;10.00;55.60
10538;DHT22;5317;49.048;8.468;2023-04-03T03:00:31;10.00;55.60
10538;DHT22;5317;49.048;8.468;2023-04-03T03:02:58;10.00;56.00
10538;DHT22;5317;49.048;8.468;2023-04-03T03:05:26;9.90;56.70
10538;DHT22;5317;49.048;8.468;2023-04-03T03:07:53;9.90;56.90
10538;DHT22;5317;49.048;8.468;2023-04-03T03:10:21;9.90;57.00
10538;DHT22;5317;49.048;8.468;2023-04-03T03:12:48;9.90;57.10
10538;DHT22;5317;49.048;8.468;2023-04-03T03:15:16;9.80;57.10
10538;DHT22;5317;49.048;8.468;2023-04-03T03:17:44;9.80;57.10
10538;DHT22;5317;49.048;8.468;2023-04-03T03:20:12;9.80;57.40
10538;DHT22;5317;49.048;8.468;2023-04-03T03:22:40;9.80;57.70
10538;DHT22;5317;49.048;8.468;2023-04-03T03:25:08;9.70;57.70
10538;DHT22;5317;49.048;8.468;2023-04-03T03:27:35;9.80;57.80
10538;DHT22;5317;49.048;8.468;2023-04-03T03:30:02;9.70;57.80
10538;DHT22;5317;49.048;8.468;2023-04-03T03:32:30;9.70;57.80
10538;DHT22;5317;49.048;8.468;2023-04-03T03:34:57;9.70;57.90
10538;DHT22;5317;49.048;8.468;2023-04-03T03:37:24;9.70;58.50
10538;DHT22;5317;49.048;8.468;2023-04-03T03:39:55;9.70;58.00
10538;DHT22;5317;49.048;8.468;2023-04-03T03:42:24;9.70;58.10
10538;DHT22;5317;49.048;8.468;2023-04-03T03:44:51;9.70;58.20
10538;DHT22;5317;49.048;8.468;2023-04-03T03:47:17;9.70;58.20
10538;DHT22;5317;49.048;8.468;2023-04-03T03:49:47;9.70;58.20
10538;DHT22;5317;49.048;8.468;2023-04-03T03:52:14;9.70;58.20
10538;DHT22;5317;49.048;8.468;2023-04-03T03:54:41;9.70;58.50
10538;DHT22;5317;49.048;8.468;2023-04-03T03:57:08;9.70;58.40
10538;DHT22;5317;49.048;8.468;2023-04-03T03:59:35;9.70;58.60
10538;DHT22;5317;49.048;8.468;2023-04-03T04:02:01;9.70;58.50
10538;DHT22;5317;49.048;8.468;2023-04-03T04:04:28;9.70;58.60
10538;DHT22;5317;49.048;8.468;2023-04-03T04:06:58;9.70;58.30
10538;DHT22;5317;49.048;8.468;2023-04-03T04:09:26;9.70;58.30
10538;DHT22;5317;49.048;8.468;2023-04-03T04:11:53;9.70;58.20
10538;DHT22;5317;49.048;8.468;2023-04-03T04:14:20;9.70;58.20
10538;DHT22;5317;49.048;8.468;2023-04-03T04:16:47;9.70;58.70
10538;DHT22;5317;49.048;8.468;2023-04-03T04:19:14;9.70;58.20
10538;DHT22;5317;49.048;8.468;2023-04-03T04:21:40;9.70;58.40
10538;DHT22;5317;49.048;8.468;2023-04-03T04:24:09;9.80;58.50
10538;DHT22;5317;49.048;8.468;2023-04-03T04:26:36;9.70;58.40
10538;DHT22;5317;49.048;8.468;2023-04-03T04:29:03;9.70;58.40
10538;DHT22;5317;49.048;8.468;2023-04-03T04:31:30;9.70;58.40
10538;DHT22;5317;49.048;8.468;2023-04-03T04:33:57;9.70;58.50
10538;DHT22;5317;49.048;8.468;2023-04-03T04:36:23;9.70;58.40
10538;DHT22;5317;49.048;8.468;2023-04-03T04:38:51;9.70;58.80
10538;DHT22;5317;49.048;8.468;2023-04-03T04:41:21;9.70;58.20
10538;DHT22;5317;49.048;8.468;2023-04-03T04:43:48;9.70;58.10
10538;DHT22;5317;49.048;8.468;2023-04-03T04:46:15;9.70;58.20
10538;DHT22;5317;49.048;8.468;2023-04-03T04:48:42;9.70;58.00
10538;DHT22;5317;49.048;8.468;2023-04-03T04:51:09;9.70;57.40
10538;DHT22;5317;49.048;8.468;2023-04-03T04:53:36;9.70;57.40
10538;DHT22;5317;49.048;8.468;2023-04-03T04:56:07;9.70;57.50
10538;DHT22;5317;49.048;8.468;2023-04-03T04:58:36;9.70;56.90
10538;DHT22;5317;49.048;8.468;2023-04-03T05:01:05;9.60;56.70
10538;DHT22;5317;49.048;8.468;2023-04-03T05:03:33;9.60;56.60
10538;DHT22;5317;49.048;8.468;2023-04-03T05:06:00;9.50;56.40
10538;DHT22;5317;49.048;8.468;2023-04-03T05:08:27;9.50;56.40
10538;DHT22;5317;49.048;8.468;2023-04-03T05:10:54;9.50;56.40
10538;DHT22;5317;49.048;8.468;2023-04-03T05:13:21;9.50;56.40
10538;DHT22;5317;49.048;8.468;2023-04-03T05:15:49;9.50;56.40
10538;DHT22;5317;49.048;8.468;2023-04-03T05:18:16;9.40;56.30
10538;DHT22;5317;49.048;8.468;2023-04-03T05:20:43;9.40;56.40
10538;DHT22;5317;49.048;8.468;2023-04-03T05:23:10;9.30;56.30
10538;DHT22;5317;49.048;8.468;2023-04-03T05:25:37;9.30;56.30
10538;DHT22;5317;49.048;8.468;2023-04-03T05:28:04;9.30;56.40
10538;DHT22;5317;49.048;8.468;2023-04-03T05:30:33;9.30;56.40
10538;DHT22;5317;49.048;8.468;2023-04-03T05:33:01;9.30;56.40
10538;DHT22;5317;49.048;8.468;2023-04-03T05:35:28;9.30;56.40
10538;DHT22;5317;49.048;8.468;2023-04-03T05:37:55;9.30;56.40
10538;DHT22;5317;49.048;8.468;2023-04-03T05:40:22;9.30;56.30
10538;DHT22;5317;49.048;8.468;2023-04-03T05:42:49;9.30;56.40
10538;DHT22;5317;49.048;8.468;2023-04-03T05:45:16;9.30;56.30
10538;DHT22;5317;49.048;8.468;2023-04-03T05:47:42;9.30;56.50
10538;DHT22;5317;49.048;8.468;2023-04-03T05:50:11;9.30;56.60
10538;DHT22;5317;49.048;8.468;2023-04-03T05:52:41;9.30;56.50
10538;DHT22;5317;49.048;8.468;2023-04-03T05:55:09;9.30;56.70
10538;DHT22;5317;49.048;8.468;2023-04-03T05:57:36;9.30;57.00
10538;DHT22;5317;49.048;8.468;2023-04-03T06:00:04;9.30;57.10
10538;DHT22;5317;49.048;8.468;2023-04-03T06:02:32;9.30;57.20
10538;DHT22;5317;49.048;8.468;2023-04-03T06:04:58;9.30;57.00
10538;DHT22;5317;49.048;8.468;2023-04-03T06:07:27;9.40;56.90
10538;DHT22;5317;49.048;8.468;2023-04-03T06:09:55;9.50;57.10
10538;DHT22;5317;49.048;8.468;2023-04-03T06:12:23;9.40;57.20
10538;DHT22;5317;49.048;8.468;2023-04-03T06:14:50;9.50;57.10
10538;DHT22;5317;49.048;8.468;2023-04-03T06:17:17;9.50;57.00
10538;DHT22;5317;49.048;8.468;2023-04-03T06:19:44;9.50;57.10
10538;DHT22;5317;49.048;8.468;2023-04-03T06:22:11;9.60;57.10
10538;DHT22;5317;49.048;8.468;2023-04-03T06:24:40;9.60;57.10
10538;DHT22;5317;49.048;8.468;2023-04-03T06:27:07;9.60;56.90
10538;DHT22;5317;49.048;8.468;2023-04-03T06:29:34;9.70;57.00
10538;DHT22;5317;49.048;8.468;2023-04-03T06:32:01;9.70;57.10
10538;DHT22;5317;49.048;8.468;2023-04-03T06:34:28;9.70;56.90
10538;DHT22;5317;49.048;8.468;2023-04-03T06:36:54;9.70;57.70
10538;DHT22;5317;49.048;8.468;2023-04-03T06:39:22;9.80;57.30
10538;DHT22;5317;49.048;8.468;2023-04-03T06:41:50;9.80;57.50
10538;DHT22;5317;49.048;8.468;2023-04-03T06:44:17;9.90;57.30
10538;DHT22;5317;49.048;8.468;2023-04-03T06:46:44;9.90;57.30
10538;DHT22;5317;49.048;8.468;2023-04-03T06:49:12;9.90;57.10
10538;DHT22;5317;49.048;8.468;2023-04-03T06:51:39;10.00;56.40
10538;DHT22;5317;49.048;8.468;2023-04-03T06:54:06;10.00;56.30
10538;DHT22;5317;49.048;8.468;2023-04-03T06:56:34;10.00;56.50
10538;DHT22;5317;49.048;8.468;2023-04-03T06:59:02;10.00;56.30
10538;DHT22;5317;49.048;8.468;2023-04-03T07:01:29;10.10;56.30
10538;DHT22;5317;49.048;8.468;2023-04-03T07:03:57;10.10;56.20
10538;DHT22;5317;49.048;8.468;2023-04-03T07:06:24;10.10;56.00
10538;DHT22;5317;49.048;8.468;2023-04-03T07:08:52;10.10;55.90
10538;DHT22;5317;49.048;8.468;2023-04-03T07:11:19;10.20;55.70
10538;DHT22;5317;49.048;8.468;2023-04-03T07:13:46;10.20;55.90
10538;DHT22;5317;49.048;8.468;2023-04-03T07:16:14;10.30;55.90
10538;DHT22;5317;49.048;8.468;2023-04-03T07:18:41;10.40;55.60
10538;DHT22;5317;49.048;8.468;2023-04-03T07:21:08;10.50;55.50
10538;DHT22;5317;49.048;8.468;2023-04-03T07:23:35;10.60;55.20
10538;DHT22;5317;49.048;8.468;2023-04-03T07:26:02;10.60;55.10
10538;DHT22;5317;49.048;8.468;2023-04-03T07:28:29;10.70;55.20
10538;DHT22;5317;49.048;8.468;2023-04-03T07:31:01;10.70;55.00
10538;DHT22;5317;49.048;8.468;2023-04-03T07:33:30;10.80;54.80
10538;DHT22;5317;49.048;8.468;2023-04-03T07:35:57;10.80;54.30
10538;DHT22;5317;49.048;8.468;2023-04-03T07:38:26;10.90;54.70
10538;DHT22;5317;49.048;8.468;2023-04-03T07:40:53;11.00;55.00
10538;DHT22;5317;49.048;8.468;2023-04-03T07:43:20;11.00;54.60
10538;DHT22;5317;49.048;8.468;2023-04-03T07:45:48;11.00;54.40
10538;DHT22;5317;49.048;8.468;2023-04-03T07:48:17;11.00;54.30
10538;DHT22;5317;49.048;8.468;2023-04-03T07:50:45;11.00;54.00
10538;DHT22;5317;49.048;8.468;2023-04-03T07:53:12;11.00;54.30
10538;DHT22;5317;49.048;8.468;2023-04-03T07:55:39;11.00;54.30
10538;DHT22;5317;49.048;8.468;2023-04-03T07:58:09;11.10;53.90
10538;DHT22;5317;49.048;8.468;2023-04-03T08:00:36;11.10;53.90
10538;DHT22;5317;49.048;8.468;2023-04-03T08:03:03;11.10;54.40
10538;DHT22;5317;49.048;8.468;2023-04-03T08:05:31;11.20;54.50
10538;DHT22;5317;49.048;8.468;2023-04-03T08:07:59;11.20;54.50
10538;DHT22;5317;49.048;8.468;2023-04-03T08:10:26;11.30;54.00
10538;DHT22;5317;49.048;8.468;2023-04-03T08:12:53;11.40;54.10
10538;DHT22;5317;49.048;8.468;2023-04-03T08:15:20;11.40;54.00
10538;DHT22;5317;49.048;8.468;2023-04-03T08:17:47;11.50;54.40
10538;DHT22;5317;49.048;8.468;2023-04-03T08:20:14;11.50;54.10
10538;DHT22;5317;49.048;8.468;2023-04-03T08:22:40;11.70;53.70
10538;DHT22;5317;49.048;8.468;2023-04-03T08:25:09;11.70;54.60
10538;DHT22;5317;49.048;8.468;2023-04-03T08:27:36;11.80;53.90
10538;DHT22;5317;49.048;8.468;2023-04-03T08:30:04;11.80;53.40
10538;DHT22;5317;49.048;8.468;2023-04-03T08:32:33;12.00;54.00
10538;DHT22;5317;49.048;8.468;2023-04-03T08:35:00;12.10;54.40
10538;DHT22;5317;49.048;8.468;2023-04-03T08:37:27;12.20;53.70
10538;DHT22;5317;49.048;8.468;2023-04-03T08:39:54;12.30;52.60
10538;DHT22;5317;49.048;8.468;2023-04-03T08:42:34;12.30;51.00
10538;DHT22;5317;49.048;8.468;2023-04-03T08:45:08;12.20;50.80
10538;DHT22;5317;49.048;8.468;2023-04-03T08:47:40;12.20;50.90
10538;DHT22;5317;49.048;8.468;2023-04-03T08:50:13;12.20;50.90
10538;DHT22;5317;49.048;8.468;2023-04-03T08:52:44;12.20;50.60
10538;DHT22;5317;49.048;8.468;2023-04-03T08:55:21;12.30;50.50
10538;DHT22;5317;49.048;8.468;2023-04-03T08:57:53;12.30;51.30
10538;DHT22;5317;49.048;8.468;2023-04-03T09:00:25;12.40;51.40
10538;DHT22;5317;49.048;8.468;2023-04-03T09:02:54;12.40;50.80
10538;DHT22;5317;49.048;8.468;2023-04-03T09:05:32;12.40;51.20
10538;DHT22;5317;49.048;8.468;2023-04-03T09:08:06;12.50;50.10
10538;DHT22;5317;49.048;8.468;2023-04-03T09:10:35;12.40;49.70
10538;DHT22;5317;49.048;8.468;2023-04-03T09:13:08;12.50;50.20
10538;DHT22;5317;49.048;8.468;2023-04-03T09:15:37;12.40;48.20
10538;DHT22;5317;49.048;8.468;2023-04-03T09:18:08;12.50;48.80
10538;DHT22;5317;49.048;8.468;2023-04-03T09:20:45;12.60;49.10
10538;DHT22;5317;49.048;8.468;2023-04-03T09:23:20;12.70;49.80
10538;DHT22;5317;49.048;8.468;2023-04-03T09:25:50;12.80;48.70
10538;DHT22;5317;49.048;8.468;2023-04-03T09:28:21;12.90;48.80
10538;DHT22;5317;49.048;8.468;2023-04-03T09:30:48;13.00;48.80
10538;DHT22;5317;49.048;8.468;2023-04-03T09:33:15;13.20;48.30
10538;DHT22;5317;49.048;8.468;2023-04-03T09:35:43;13.40;48.20
10538;DHT22;5317;49.048;8.468;2023-04-03T09:38:20;13.50;48.10
10538;DHT22;5317;49.048;8.468;2023-04-03T09:40:48;13.60;46.70
10538;DHT22;5317;49.048;8.468;2023-04-03T09:43:26;13.70;47.30
10538;DHT22;5317;49.048;8.468;2023-04-03T09:45:53;13.80;45.60
10538;DHT22;5317;49.048;8.468;2023-04-03T09:48:22;13.80;45.60
10538;DHT22;5317;49.048;8.468;2023-04-03T09:50:55;13.80;45.70
10538;DHT22;5317;49.048;8.468;2023-04-03T09:53:35;13.90;45.90
10538;DHT22;5317;49.048;8.468;2023-04-03T09:56:04;14.00;45.70
10538;DHT22;5317;49.048;8.468;2023-04-03T09:58:47;14.00;44.90
10538;DHT22;5317;49.048;8.468;2023-04-03T10:01:26;13.90;44.70
10538;DHT22;5317;49.048;8.468;2023-04-03T10:04:08;13.90;43.50
10538;DHT22;5317;49.048;8.468;2023-04-03T10:06:37;14.00;44.30
10538;DHT22;5317;49.048;8.468;2023-04-03T10:09:14;14.10;44.50
10538;DHT22;5317;49.048;8.468;2023-04-03T10:11:57;14.20;44.40
10538;DHT22;5317;49.048;8.468;2023-04-03T10:14:26;14.30;43.80
10538;DHT22;5317;49.048;8.468;2023-04-03T10:16:56;14.40;44.50
10538;DHT22;5317;49.048;8.468;2023-04-03T10:19:35;14.40;43.50
10538;DHT22;5317;49.048;8.468;2023-04-03T10:22:12;14.40;42.50
10538;DHT22;5317;49.048;8.468;2023-04-03T10:24:47;14.40;42.30
10538;DHT22;5317;49.048;8.468;2023-04-03T10:27:20;14.50;42.30
10538;DHT22;5317;49.048;8.468;2023-04-03T10:29:53;14.40;42.80
10538;DHT22;5317;49.048;8.468;2023-04-03T10:32:32;14.40;41.80
10538;DHT22;5317;49.048;8.468;2023-04-03T10:35:11;14.50;42.60
10538;DHT22;5317;49.048;8.468;2023-04-03T10:37:55;14.50;42.10
10538;DHT22;5317;49.048;8.468;2023-04-03T10:40:30;14.40;41.20
10538;DHT22;5317;49.048;8.468;2023-04-03T10:43:06;14.40;40.90
10538;DHT22;5317;49.048;8.468;2023-04-03T10:48:44;14.30;41.90
10538;DHT22;5317;49.048;8.468;2023-04-03T10:51:22;14.30;40.90
10538;DHT22;5317;49.048;8.468;2023-04-03T10:53:56;14.30;41.50
10538;DHT22;5317;49.048;8.468;2023-04-03T10:56:31;14.40;42.00
10538;DHT22;5317;49.048;8.468;2023-04-03T10:59:02;14.40;40.30
10538;DHT22;5317;49.048;8.468;2023-04-03T11:01:38;14.40;41.50
10538;DHT22;5317;49.048;8.468;2023-04-03T11:04:06;14.50;41.10
10538;DHT22;5317;49.048;8.468;2023-04-03T11:06:37;14.60;41.80
10538;DHT22;5317;49.048;8.468;2023-04-03T11:09:15;14.60;40.80
10538;DHT22;5317;49.048;8.468;2023-04-03T11:11:45;14.50;39.70
10538;DHT22;5317;49.048;8.468;2023-04-03T11:14:21;14.50;39.80
10538;DHT22;5317;49.048;8.468;2023-04-03T11:17:09;14.50;39.90
10538;DHT22;5317;49.048;8.468;2023-04-03T11:19:41;14.40;40.30
10538;DHT22;5317;49.048;8.468;2023-04-03T11:22:14;14.40;39.10
10538;DHT22;5317;49.048;8.468;2023-04-03T11:24:43;14.50;38.70
10538;DHT22;5317;49.048;8.468;2023-04-03T11:27:17;14.50;38.90
10538;DHT22;5317;49.048;8.468;2023-04-03T11:29:49;14.50;39.10
10538;DHT22;5317;49.048;8.468;2023-04-03T11:32:54;14.40;39.70
10538;DHT22;5317;49.048;8.468;2023-04-03T11:35:25;14.40;39.70
10538;DHT22;5317;49.048;8.468;2023-04-03T11:37:53;14.40;40.30
10538;DHT22;5317;49.048;8.468;2023-04-03T11:40:24;14.50;40.40
10538;DHT22;5317;49.048;8.468;2023-04-03T11:42:54;14.50;40.40
10538;DHT22;5317;49.048;8.468;2023-04-03T11:45:32;14.60;40.00
10538;DHT22;5317;49.048;8.468;2023-04-03T11:48:02;14.50;40.40
10538;DHT22;5317;49.048;8.468;2023-04-03T11:50:44;14.60;40.50
10538;DHT22;5317;49.048;8.468;2023-04-03T11:53:30;14.60;39.60
10538;DHT22;5317;49.048;8.468;2023-04-03T11:55:59;14.40;39.90
10538;DHT22;5317;49.048;8.468;2023-04-03T11:58:28;14.30;39.80
10538;DHT22;5317;49.048;8.468;2023-04-03T12:01:04;14.20;40.50
10538;DHT22;5317;49.048;8.468;2023-04-03T12:06:49;14.20;41.10
10538;DHT22;5317;49.048;8.468;2023-04-03T12:09:28;14.30;41.20
10538;DHT22;5317;49.048;8.468;2023-04-03T12:11:59;14.40;41.00
10538;DHT22;5317;49.048;8.468;2023-04-03T12:14:27;14.40;40.80
10538;DHT22;5317;49.048;8.468;2023-04-03T12:16:55;14.40;41.30
10538;DHT22;5317;49.048;8.468;2023-04-03T12:19:41;14.30;40.20
10538;DHT22;5317;49.048;8.468;2023-04-03T12:22:15;14.30;40.60
10538;DHT22;5317;49.048;8.468;2023-04-03T12:24:45;14.30;42.30
10538;DHT22;5317;49.048;8.468;2023-04-03T12:27:29;14.50;40.80
10538;DHT22;5317;49.048;8.468;2023-04-03T12:30:14;14.60;40.90
10538;DHT22;5317;49.048;8.468;2023-04-03T12:33:02;14.70;40.50
10538;DHT22;5317;49.048;8.468;2023-04-03T12:35:36;14.80;40.40
10538;DHT22;5317;49.048;8.468;2023-04-03T12:38:33;14.70;38.80
10538;DHT22;5317;49.048;8.468;2023-04-03T12:41:19;14.60;38.50
10538;DHT22;5317;49.048;8.468;2023-04-03T12:43:59;14.40;38.40
10538;DHT22;5317;49.048;8.468;2023-04-03T12:46:35;14.50;40.30
10538;DHT22;5317;49.048;8.468;2023-04-03T12:49:15;14.50;39.80
10538;DHT22;5317;49.048;8.468;2023-04-03T12:51:47;14.50;39.20
10538;DHT22;5317;49.048;8.468;2023-04-03T12:54:17;14.40;38.80
10538;DHT22;5317;49.048;8.468;2023-04-03T12:56:46;14.30;39.30
10538;DHT22;5317;49.048;8.468;2023-04-03T12:59:15;14.30;39.20
10538;DHT22;5317;49.048;8.468;2023-04-03T13:01:43;14.20;38.70
10538;DHT22;5317;49.048;8.468;2023-04-03T13:04:11;14.30;39.20
10538;DHT22;5317;49.048;8.468;2023-04-03T13:06:40;14.30;39.80
10538;DHT22;5317;49.048;8.468;2023-04-03T13:09:20;14.30;40.00
10538;DHT22;5317;49.048;8.468;2023-04-03T13:11:49;14.30;39.40
10538;DHT22;5317;49.048;8.468;2023-04-03T13:14:20;14.20;39.40
10538;DHT22;5317;49.048;8.468;2023-04-03T13:16:58;14.30;40.40
10538;DHT22;5317;49.048;8.468;2023-04-03T13:19:27;14.20;39.80
10538;DHT22;5317;49.048;8.468;2023-04-03T13:22:00;14.30;40.20
10538;DHT22;5317;49.048;8.468;2023-04-03T13:24:31;14.20;41.00
10538;DHT22;5317;49.048;8.468;2023-04-03T13:26:59;14.10;40.40
10538;DHT22;5317;49.048;8.468;2023-04-03T13:29:33;14.20;40.70
10538;DHT22;5317;49.048;8.468;2023-04-03T13:32:02;14.20;40.50
10538;DHT22;5317;49.048;8.468;2023-04-03T13:34:36;14.30;38.10
10538;DHT22;5317;49.048;8.468;2023-04-03T13:37:04;14.30;38.00
10538;DHT22;5317;49.048;8.468;2023-04-03T13:39:35;14.40;38.10
10538;DHT22;5317;49.048;8.468;2023-04-03T13:42:15;14.50;38.20
10538;DHT22;5317;49.048;8.468;2023-04-03T13:44:43;14.70;37.40
10538;DHT22;5317;49.048;8.468;2023-04-03T13:47:19;14.80;37.70
10538;DHT22;5317;49.048;8.468;2023-04-03T13:49:59;15.00;37.20
10538;DHT22;5317;49.048;8.468;2023-04-03T13:52:29;15.10;36.50
10538;DHT22;5317;49.048;8.468;2023-04-03T13:54:59;15.10;37.00
10538;DHT22;5317;49.048;8.468;2023-04-03T13:57:26;15.10;36.50
10538;DHT22;5317;49.048;8.468;2023-04-03T13:59:54;15.00;36.70
10538;DHT22;5317;49.048;8.468;2023-04-03T14:02:22;15.00;37.90
10538;DHT22;5317;49.048;8.468;2023-04-03T14:04:53;14.90;39.10
10538;DHT22;5317;49.048;8.468;2023-04-03T14:07:23;14.90;39.50
10538;DHT22;5317;49.048;8.468;2023-04-03T14:09:51;14.80;39.80
10538;DHT22;5317;49.048;8.468;2023-04-03T14:12:25;14.70;39.90
10538;DHT22;5317;49.048;8.468;2023-04-03T14:14:53;14.70;40.60
10538;DHT22;5317;49.048;8.468;2023-04-03T14:17:23;14.80;40.40
10538;DHT22;5317;49.048;8.468;2023-04-03T14:19:51;14.80;41.20
10538;DHT22;5317;49.048;8.468;2023-04-03T14:22:20;14.70;40.00
10538;DHT22;5317;49.048;8.468;2023-04-03T14:24:49;14.60;39.20
10538;DHT22;5317;49.048;8.468;2023-04-03T14:27:18;14.50;39.30
10538;DHT22;5317;49.048;8.468;2023-04-03T14:29:48;14.50;39.50
10538;DHT22;5317;49.048;8.468;2023-04-03T14:32:17;14.50;40.00
10538;DHT22;5317;49.048;8.468;2023-04-03T14:34:45;14.40;39.70
10538;DHT22;5317;49.048;8.468;2023-04-03T14:37:13;14.40;39.00
10538;DHT22;5317;49.048;8.468;2023-04-03T14:39:41;14.40;38.20
10538;DHT22;5317;49.048;8.468;2023-04-03T14:42:12;14.30;38.20
10538;DHT22;5317;49.048;8.468;2023-04-03T14:44:39;14.20;39.00
10538;DHT22;5317;49.048;8.468;2023-04-03T14:47:10;14.20;39.50
10538;DHT22;5317;49.048;8.468;2023-04-03T14:49:38;14.10;39.20
10538;DHT22;5317;49.048;8.468;2023-04-03T14:52:05;14.20;39.40
10538;DHT22;5317;49.048;8.468;2023-04-03T14:54:32;14.40;39.80
10538;DHT22;5317;49.048;8.468;2023-04-03T14:56:59;14.40;39.40
10538;DHT22;5317;49.048;8.468;2023-04-03T14:59:28;14.40;38.30
10538;DHT22;5317;49.048;8.468;2023-04-03T15:01:55;14.50;38.40
10538;DHT22;5317;49.048;8.468;2023-04-03T15:04:23;15.40;38.00
10538;DHT22;5317;49.048;8.468;2023-04-03T15:06:51;16.00;37.10
10538;DHT22;5317;49.048;8.468;2023-04-03T15:09:20;16.10;36.20
10538;DHT22;5317;49.048;8.468;2023-04-03T15:11:48;15.90;35.50
10538;DHT22;5317;49.048;8.468;2023-04-03T15:14:16;15.70;35.50
10538;DHT22;5317;49.048;8.468;2023-04-03T15:16:43;15.50;36.70
10538;DHT22;5317;49.048;8.468;2023-04-03T15:19:10;15.60;36.80
10538;DHT22;5317;49.048;8.468;2023-04-03T15:21:39;15.70;36.10
10538;DHT22;5317;49.048;8.468;2023-04-03T15:24:06;15.70;35.80
10538;DHT22;5317;49.048;8.468;2023-04-03T15:26:33;15.70;35.40
10538;DHT22;5317;49.048;8.468;2023-04-03T15:29:00;15.70;35.50
10538;DHT22;5317;49.048;8.468;2023-04-03T15:31:27;15.70;35.50
10538;DHT22;5317;49.048;8.468;2023-04-03T15:33:54;15.60;35.90
10538;DHT22;5317;49.048;8.468;2023-04-03T15:36:21;15.50;36.10
10538;DHT22;5317;49.048;8.468;2023-04-03T15:38:49;15.40;36.30
10538;DHT22;5317;49.048;8.468;2023-04-03T15:41:16;15.20;35.80
10538;DHT22;5317;49.048;8.468;2023-04-03T15:43:43;15.10;36.10
10538;DHT22;5317;49.048;8.468;2023-04-03T15:46:10;15.10;35.90
10538;DHT22;5317;49.048;8.468;2023-04-03T15:48:37;15.20;36.20
10538;DHT22;5317;49.048;8.468;2023-04-03T15:51:05;15.30;35.70
10538;DHT22;5317;49.048;8.468;2023-04-03T15:53:32;15.40;35.80
10538;DHT22;5317;49.048;8.468;2023-04-03T15:56:00;15.40;35.30
10538;DHT22;5317;49.048;8.468;2023-04-03T15:58:27;15.30;35.70
10538;DHT22;5317;49.048;8.468;2023-04-03T16:00:54;15.20;35.40
10538;DHT22;5317;49.048;8.468;2023-04-03T16:03:21;15.20;35.90
10538;DHT22;5317;49.048;8.468;2023-04-03T16:05:49;15.10;34.80
10538;DHT22;5317;49.048;8.468;2023-04-03T16:08:17;15.00;34.40
10538;DHT22;5317;49.048;8.468;2023-04-03T16:10:44;14.90;34.60
10538;DHT22;5317;49.048;8.468;2023-04-03T16:13:13;14.80;34.80